createdAt,value
2019-04-07T00:00:00.265Z,11.40
2019-04-07T00:02:28.043Z,11.10
2019-04-07T00:04:55.790Z,10.20
2019-04-07T00:07:23.343Z,10.50
2019-04-07T00:09:50.572Z,9.73
2019-04-07T00:12:17.909Z,11.30
2019-04-07T00:14:45.360Z,11.07
2019-04-07T00:17:12.666Z,11.07
2019-04-07T00:19:40.263Z,10.87
2019-04-07T00:22:07.949Z,11.30
2019-04-07T00:24:35.475Z,11.50
2019-04-07T00:27:03.627Z,12.03
2019-04-07T00:29:31.584Z,10.70
2019-04-07T00:31:59.030Z,11.70
2019-04-07T00:34:26.376Z,11.93
2019-04-07T00:36:53.747Z,11.50
2019-04-07T00:39:21.167Z,11.53
2019-04-07T00:41:48.540Z,11.00
2019-04-07T00:44:15.986Z,11.23
2019-04-07T00:46:43.351Z,11.50
2019-04-07T00:49:11.604Z,10.97
2019-04-07T00:51:40.035Z,12.00
2019-04-07T00:54:07.370Z,12.17
2019-04-07T00:56:34.678Z,11.67
2019-04-07T00:59:02.656Z,11.87
2019-04-07T01:01:30.550Z,12.03
2019-04-07T01:03:58.412Z,11.43
2019-04-07T01:06:26.145Z,11.93
2019-04-07T01:08:54.133Z,11.47
2019-04-07T01:11:21.637Z,12.10
2019-04-07T01:13:49.023Z,12.87
2019-04-07T01:16:17.319Z,12.70
2019-04-07T01:18:44.740Z,12.43
2019-04-07T01:21:12.785Z,12.33
2019-04-07T01:23:40.264Z,12.40
2019-04-07T01:26:07.744Z,13.00
2019-04-07T01:28:35.355Z,11.63
2019-04-07T01:31:03.385Z,11.53
2019-04-07T01:33:31.401Z,11.50
2019-04-07T01:35:58.802Z,12.10
2019-04-07T01:38:26.046Z,12.10
2019-04-07T01:41:14.052Z,12.50
2019-04-07T01:43:47.213Z,12.50
2019-04-07T01:46:46.076Z,12.70
2019-04-07T01:49:23.809Z,13.10
2019-04-07T01:52:00.831Z,12.37
2019-04-07T01:54:48.238Z,12.83
2019-04-07T01:57:24.647Z,12.23
2019-04-07T02:00:07.185Z,12.47
2019-04-07T02:03:03.391Z,13.10
2019-04-07T02:06:00.653Z,13.90
2019-04-07T02:09:03.450Z,13.23
2019-04-07T02:11:56.079Z,12.07
2019-04-07T02:14:41.979Z,13.00
2019-04-07T02:17:20.989Z,12.67
2019-04-07T02:20:11.268Z,12.70
2019-04-07T02:23:07.486Z,12.80
2019-04-07T02:25:46.086Z,12.83
2019-04-07T02:28:38.329Z,13.90
2019-04-07T02:31:34.016Z,13.43
2019-04-07T02:34:15.569Z,12.73
2019-04-07T02:37:08.648Z,12.00
2019-04-07T02:39:42.151Z,12.03
2019-04-07T02:42:18.004Z,13.87
2019-04-07T02:45:10.976Z,12.73
2019-04-07T02:47:56.799Z,11.73
2019-04-07T02:50:39.957Z,12.40
2019-04-07T02:53:24.599Z,12.50
2019-04-07T02:56:10.199Z,13.70
2019-04-07T02:59:02.864Z,14.17
2019-04-07T03:01:37.037Z,13.60
2019-04-07T03:04:37.077Z,13.80
2019-04-07T03:07:27.079Z,12.87
2019-04-07T03:10:26.252Z,14.23
2019-04-07T03:13:22.912Z,13.73
2019-04-07T03:15:55.502Z,12.77
2019-04-07T03:18:40.346Z,12.40
2019-04-07T03:21:39.060Z,12.97
2019-04-07T03:24:17.293Z,12.57
2019-04-07T03:27:22.541Z,12.60
2019-04-07T03:30:09.277Z,12.10
2019-04-07T03:32:55.405Z,12.90
2019-04-07T03:35:48.518Z,12.93
2019-04-07T03:38:33.971Z,12.40
2019-04-07T03:41:23.915Z,13.30
2019-04-07T03:44:11.780Z,13.40
2019-04-07T03:46:57.649Z,12.80
2019-04-07T03:49:41.406Z,13.50
2019-04-07T03:52:32.025Z,12.53
2019-04-07T03:55:24.864Z,13.03
2019-04-07T03:58:24.563Z,12.87
2019-04-07T04:01:19.064Z,12.73
2019-04-07T04:03:56.935Z,13.80
2019-04-07T04:06:49.840Z,13.23
2019-04-07T04:09:26.636Z,13.07
2019-04-07T04:11:59.782Z,12.37
2019-04-07T04:14:33.404Z,13.10
2019-04-07T04:17:00.856Z,12.97
2019-04-07T04:19:28.744Z,13.50
2019-04-07T04:21:56.003Z,14.37
2019-04-07T04:24:23.318Z,12.83
2019-04-07T04:26:51.754Z,12.80
2019-04-07T04:29:20.113Z,13.37
2019-04-07T04:31:47.654Z,13.07
2019-04-07T04:34:15.191Z,13.20
2019-04-07T04:36:42.849Z,12.93
2019-04-07T04:39:10.347Z,13.20
2019-04-07T04:41:37.683Z,14.63
2019-04-07T04:44:05.071Z,13.57
2019-04-07T04:46:32.751Z,14.23
2019-04-07T04:49:00.203Z,13.00
2019-04-07T04:51:28.159Z,13.67
2019-04-07T04:53:56.614Z,14.23
2019-04-07T04:56:24.281Z,12.57
2019-04-07T04:58:51.935Z,13.17
2019-04-07T05:01:19.443Z,13.23
2019-04-07T05:03:47.482Z,13.33
2019-04-07T05:06:14.847Z,12.70
2019-04-07T05:08:42.168Z,13.40
2019-04-07T05:11:09.630Z,13.03
2019-04-07T05:13:37.317Z,13.73
2019-04-07T05:16:05.016Z,14.90
2019-04-07T05:18:33.288Z,14.63
2019-04-07T05:21:00.893Z,14.90
2019-04-07T05:23:28.492Z,15.60
2019-04-07T05:25:55.973Z,16.00
2019-04-07T05:28:23.180Z,15.43
2019-04-07T05:30:51.763Z,15.50
2019-04-07T05:33:20.023Z,14.57
2019-04-07T05:35:47.412Z,14.17
2019-04-07T05:38:14.764Z,13.90
2019-04-07T05:40:42.236Z,14.10
2019-04-07T05:43:09.690Z,13.47
2019-04-07T05:45:37.681Z,13.53
2019-04-07T05:48:05.435Z,14.73
2019-04-07T05:50:33.458Z,14.50
2019-04-07T05:53:00.771Z,15.30
2019-04-07T05:55:28.135Z,15.17
2019-04-07T05:57:55.780Z,15.30
2019-04-07T06:00:23.473Z,15.40
2019-04-07T06:02:51.601Z,15.00
2019-04-07T06:05:19.537Z,14.73
2019-04-07T06:07:47.108Z,15.00
2019-04-07T06:10:14.523Z,14.57
2019-04-07T06:12:44.927Z,14.43
2019-04-07T06:15:15.728Z,14.33
2019-04-07T06:17:42.227Z,14.53
2019-04-07T06:20:14.259Z,14.43
2019-04-07T06:22:39.030Z,15.00
2019-04-07T06:25:07.060Z,14.53
2019-04-07T06:27:34.575Z,15.00
2019-04-07T06:30:02.555Z,14.97
2019-04-07T06:32:30.252Z,15.63
2019-04-07T06:34:57.509Z,15.60
2019-04-07T06:37:27.785Z,15.60
2019-04-07T06:39:54.774Z,15.67
2019-04-07T06:42:22.129Z,15.97
2019-04-07T06:44:51.677Z,14.47
2019-04-07T06:47:24.892Z,14.87
2019-04-07T06:50:05.856Z,14.43
2019-04-07T06:52:56.637Z,14.27
2019-04-07T06:55:33.307Z,14.30
2019-04-07T06:58:26.665Z,15.00
2019-04-07T07:01:12.221Z,14.53
2019-04-07T07:03:54.016Z,15.03
2019-04-07T07:06:40.631Z,14.63
2019-04-07T07:09:33.318Z,15.60
2019-04-07T07:12:38.800Z,13.90
2019-04-07T07:15:24.455Z,14.47
2019-04-07T07:18:10.321Z,13.90
2019-04-07T07:21:09.923Z,14.50
2019-04-07T07:23:45.352Z,15.10
2019-04-07T07:26:11.490Z,15.17
2019-04-07T07:28:42.512Z,14.40
2019-04-07T07:31:08.843Z,15.07
2019-04-07T07:33:38.399Z,15.40
2019-04-07T07:36:05.598Z,15.40
2019-04-07T07:38:33.528Z,14.27
2019-04-07T07:41:03.570Z,15.60
2019-04-07T07:43:31.660Z,15.80
2019-04-07T07:46:00.145Z,15.57
2019-04-07T07:48:28.369Z,14.70
2019-04-07T07:50:55.964Z,15.93
2019-04-07T07:53:26.962Z,16.30
2019-04-07T07:55:53.033Z,16.37
2019-04-07T07:58:20.401Z,16.00
2019-04-07T08:00:47.784Z,16.13
2019-04-07T08:03:16.615Z,15.80
2019-04-07T08:05:44.264Z,15.30
2019-04-07T08:08:11.654Z,15.50
2019-04-07T08:10:39.718Z,16.23
2019-04-07T08:13:08.677Z,14.73
2019-04-07T08:15:36.203Z,14.17
2019-04-07T08:18:07.028Z,15.33
2019-04-07T08:20:32.768Z,13.97
2019-04-07T08:23:00.683Z,13.43
2019-04-07T08:25:28.230Z,13.87
2019-04-07T08:27:56.495Z,13.17
2019-04-07T08:30:23.968Z,13.80
2019-04-07T08:32:51.460Z,13.20
2019-04-07T08:35:18.717Z,12.63
2019-04-07T08:37:47.879Z,12.17
2019-04-07T08:40:16.346Z,13.00
2019-04-07T08:42:46.372Z,12.37
2019-04-07T08:45:13.079Z,12.20
2019-04-07T08:47:40.298Z,12.07
2019-04-07T08:50:08.460Z,12.23
2019-04-07T08:52:38.526Z,12.43
2019-04-07T08:55:06.162Z,11.73
2019-04-07T08:57:33.584Z,11.13
2019-04-07T09:00:01.088Z,11.50
2019-04-07T09:02:30.172Z,11.37
2019-04-07T09:04:58.823Z,11.80
2019-04-07T09:07:26.610Z,12.83
2019-04-07T09:09:54.450Z,11.70
2019-04-07T09:12:21.863Z,10.97
2019-04-07T09:14:50.192Z,11.30
2019-04-07T09:17:52.131Z,12.03
2019-04-07T09:20:40.291Z,11.63
2019-04-07T09:23:15.215Z,11.37
2019-04-07T09:26:01.519Z,10.53
2019-04-07T09:28:53.377Z,10.77
2019-04-07T09:31:55.100Z,11.17
2019-04-07T09:34:35.783Z,11.30
2019-04-07T09:37:18.363Z,10.73
2019-04-07T09:40:20.479Z,11.10
2019-04-07T09:43:05.467Z,10.80
2019-04-07T09:45:51.771Z,11.53
2019-04-07T09:48:48.802Z,11.07
2019-04-07T09:51:21.868Z,11.57
2019-04-07T09:54:06.660Z,10.77
2019-04-07T09:56:46.219Z,11.50
2019-04-07T09:59:29.546Z,11.57
2019-04-07T10:02:22.831Z,10.30
2019-04-07T10:05:12.405Z,10.07
2019-04-07T10:07:48.900Z,11.23
2019-04-07T10:10:25.419Z,10.67
2019-04-07T10:13:00.684Z,11.57
2019-04-07T10:15:46.525Z,11.17
2019-04-07T10:18:28.561Z,11.70
2019-04-07T10:21:25.217Z,10.57
2019-04-07T10:24:18.606Z,10.83
2019-04-07T10:26:55.302Z,10.43
2019-04-07T10:29:42.800Z,11.13
2019-04-07T10:32:29.890Z,10.67
2019-04-07T10:35:06.893Z,10.43
2019-04-07T10:38:00.705Z,11.27
2019-04-07T10:40:53.591Z,10.80
2019-04-07T10:43:28.163Z,10.60
2019-04-07T10:46:13.511Z,10.70
2019-04-07T10:49:04.448Z,10.93
2019-04-07T10:51:54.285Z,10.73
2019-04-07T10:54:40.500Z,10.80
2019-04-07T10:57:17.806Z,11.43
2019-04-07T11:00:04.799Z,10.67
2019-04-07T11:02:52.770Z,10.57
2019-04-07T11:05:37.191Z,11.47
2019-04-07T11:08:26.946Z,10.80
2019-04-07T11:11:20.249Z,10.53
2019-04-07T11:14:09.888Z,10.33
2019-04-07T11:16:48.770Z,10.83
2019-04-07T11:19:28.376Z,11.10
2019-04-07T11:22:02.831Z,10.80
2019-04-07T11:25:02.127Z,9.93
2019-04-07T11:27:37.770Z,11.17
2019-04-07T11:30:18.061Z,11.20
2019-04-07T11:33:03.573Z,10.57
2019-04-07T11:35:35.603Z,10.63
2019-04-07T11:38:28.488Z,10.53
2019-04-07T11:41:10.234Z,10.73
2019-04-07T11:43:54.476Z,10.47
2019-04-07T11:46:40.137Z,10.97
2019-04-07T11:49:18.289Z,10.57
2019-04-07T11:51:53.754Z,11.23
2019-04-07T11:54:31.164Z,12.47
2019-04-07T11:57:17.274Z,10.73
2019-04-07T12:00:16.251Z,11.30
2019-04-07T12:03:19.182Z,11.20
2019-04-07T12:05:58.125Z,10.77
2019-04-07T12:08:50.046Z,10.87
2019-04-07T12:11:54.865Z,11.33
2019-04-07T12:14:35.266Z,11.37
2019-04-07T12:17:22.209Z,10.93
2019-04-07T12:20:01.989Z,10.63
2019-04-07T12:22:56.376Z,11.00
2019-04-07T12:25:46.158Z,11.13
2019-04-07T12:28:31.596Z,11.17
2019-04-07T12:31:17.441Z,12.00
2019-04-07T12:33:51.627Z,11.17
2019-04-07T12:36:32.206Z,11.70
2019-04-07T12:39:20.151Z,11.07
2019-04-07T12:42:08.408Z,11.70
2019-04-07T12:45:09.019Z,10.80
2019-04-07T12:47:57.094Z,11.40
2019-04-07T12:50:50.910Z,11.20
2019-04-07T12:53:47.915Z,11.43
2019-04-07T12:56:33.352Z,11.07
2019-04-07T12:59:06.834Z,12.07
2019-04-07T13:01:53.042Z,11.57
2019-04-07T13:04:31.791Z,11.00
2019-04-07T13:07:15.175Z,12.33
2019-04-07T13:09:51.719Z,12.10
2019-04-07T13:12:44.742Z,11.03
2019-04-07T13:15:23.469Z,11.97
2019-04-07T13:18:23.144Z,11.70
2019-04-07T13:20:57.932Z,12.10
2019-04-07T13:23:31.474Z,12.23
2019-04-07T13:26:22.778Z,12.13
2019-04-07T13:29:12.933Z,11.97
2019-04-07T13:32:00.169Z,12.30
2019-04-07T13:34:45.753Z,12.87
2019-04-07T13:37:18.837Z,12.83
2019-04-07T13:40:10.678Z,12.13
2019-04-07T13:42:43.253Z,12.67
2019-04-07T13:45:33.344Z,12.73
2019-04-07T13:48:29.120Z,12.27
2019-04-07T13:51:34.607Z,12.20
2019-04-07T13:54:22.987Z,12.53
2019-04-07T13:57:10.234Z,12.63
2019-04-07T13:59:56.521Z,12.03
2019-04-07T14:02:42.172Z,12.20
2019-04-07T14:05:29.619Z,11.90
2019-04-07T14:08:05.943Z,12.27
2019-04-07T14:10:50.435Z,12.30
2019-04-07T14:13:48.291Z,12.97
2019-04-07T14:16:34.638Z,12.77
2019-04-07T14:19:16.698Z,12.83
2019-04-07T14:21:57.064Z,13.33
2019-04-07T14:24:32.742Z,12.53
2019-04-07T14:27:15.664Z,12.73
2019-04-07T14:30:06.238Z,12.13
2019-04-07T14:32:54.598Z,12.40
2019-04-07T14:35:37.004Z,12.00
2019-04-07T14:38:32.807Z,11.73
2019-04-07T14:41:19.436Z,11.63
2019-04-07T14:44:07.087Z,11.57
2019-04-07T14:46:46.625Z,11.00
2019-04-07T14:49:33.280Z,11.30
2019-04-07T14:52:16.172Z,13.03
2019-04-07T14:55:12.928Z,11.43
2019-04-07T14:57:55.622Z,12.13
2019-04-07T15:00:41.731Z,12.03
2019-04-07T15:03:09.442Z,11.43
2019-04-07T15:05:38.809Z,12.47
2019-04-07T15:08:21.634Z,12.10
2019-04-07T15:10:51.705Z,10.23
2019-04-07T15:13:27.047Z,11.90
2019-04-07T15:15:51.807Z,12.00
2019-04-07T15:18:20.833Z,13.03
2019-04-07T15:20:48.903Z,13.10
2019-04-07T15:23:16.539Z,12.50
2019-04-07T15:25:47.029Z,13.00
2019-04-07T15:28:14.197Z,12.37
2019-04-07T15:30:46.028Z,11.90
2019-04-07T15:33:11.942Z,12.27
2019-04-07T15:35:40.423Z,12.40
2019-04-07T15:38:08.843Z,12.13
2019-04-07T15:40:36.551Z,13.20
2019-04-07T15:43:06.069Z,13.07
2019-04-07T15:45:33.351Z,12.70
2019-04-07T15:48:00.953Z,13.10
2019-04-07T15:50:30.207Z,12.87
2019-04-07T15:52:58.256Z,12.20
2019-04-07T15:55:36.983Z,12.07
2019-04-07T15:57:57.585Z,10.90
2019-04-07T16:00:24.387Z,12.20
2019-04-07T16:02:53.319Z,11.10
2019-04-07T16:05:21.566Z,10.63
2019-04-07T16:07:52.761Z,11.17
2019-04-07T16:10:21.253Z,10.43
2019-04-07T16:12:51.083Z,10.60
2019-04-07T16:15:18.282Z,11.07
2019-04-07T16:17:47.541Z,10.67
2019-04-07T16:20:23.666Z,10.87
2019-04-07T16:22:47.640Z,10.43
2019-04-07T16:25:14.347Z,11.10
2019-04-07T16:27:42.409Z,10.80
2019-04-07T16:30:11.069Z,10.67
2019-04-07T16:32:39.080Z,10.60
2019-04-07T16:35:07.413Z,10.27
2019-04-07T16:37:35.611Z,10.63
2019-04-07T16:40:08.690Z,10.20
2019-04-07T16:42:33.772Z,10.20
2019-04-07T16:45:01.754Z,10.27
2019-04-07T16:47:33.862Z,10.53
2019-04-07T16:49:58.773Z,10.47
2019-04-07T16:52:28.667Z,10.40
2019-04-07T16:54:56.034Z,10.40
2019-04-07T16:57:26.181Z,9.50
2019-04-07T16:59:53.116Z,9.90
2019-04-07T17:02:20.599Z,9.87
2019-04-07T17:04:48.347Z,10.00
2019-04-07T17:07:17.845Z,10.03
2019-04-07T17:09:44.857Z,10.53
2019-04-07T17:12:12.697Z,10.17
2019-04-07T17:14:41.432Z,9.87
2019-04-07T17:17:09.952Z,10.27
2019-04-07T17:19:38.366Z,10.37
2019-04-07T17:22:05.838Z,10.23
2019-04-07T17:24:33.449Z,10.20
2019-04-07T17:27:02.959Z,10.00
2019-04-07T17:29:30.134Z,10.47
2019-04-07T17:32:01.281Z,8.53
2019-04-07T17:34:27.167Z,7.90
2019-04-07T17:36:56.332Z,7.53
2019-04-07T17:39:46.201Z,6.80
2019-04-07T17:42:14.483Z,7.40
2019-04-07T17:45:21.244Z,6.90
2019-04-07T17:48:11.657Z,7.07
2019-04-07T17:51:08.751Z,6.17
2019-04-07T17:53:55.119Z,5.43
2019-04-07T17:56:45.567Z,6.17
2019-04-07T17:59:20.963Z,5.40
2019-04-07T18:02:01.035Z,5.60
2019-04-07T18:04:42.938Z,5.30
2019-04-07T18:07:19.083Z,5.17
2019-04-07T18:10:18.495Z,5.37
2019-04-07T18:13:06.270Z,5.40
2019-04-07T18:15:47.007Z,4.60
2019-04-07T18:18:41.262Z,5.03
2019-04-07T18:21:26.771Z,4.87
2019-04-07T18:24:15.427Z,5.10
2019-04-07T18:27:14.466Z,4.40
2019-04-07T18:29:48.019Z,4.20
2019-04-07T18:32:24.023Z,3.87
2019-04-07T18:35:15.730Z,4.33
2019-04-07T18:38:08.951Z,3.80
2019-04-07T18:40:44.135Z,3.67
2019-04-07T18:43:30.057Z,3.33
2019-04-07T18:46:09.360Z,3.23
2019-04-07T18:48:59.178Z,3.10
2019-04-07T18:51:56.896Z,3.03
2019-04-07T18:54:56.236Z,2.50
2019-04-07T18:57:37.187Z,2.90
2019-04-07T19:00:24.582Z,2.80
2019-04-07T19:03:10.740Z,2.27
2019-04-07T19:05:45.074Z,2.73
2019-04-07T19:08:41.334Z,2.60
2019-04-07T19:11:17.783Z,2.43
2019-04-07T19:14:21.004Z,2.57
2019-04-07T19:16:50.840Z,2.30
2019-04-07T19:19:41.920Z,2.30
2019-04-07T19:22:27.911Z,2.37
2019-04-07T19:25:15.866Z,2.30
2019-04-07T19:28:04.462Z,2.10
2019-04-07T19:30:53.400Z,2.30
2019-04-07T19:33:40.412Z,2.40
2019-04-07T19:36:26.163Z,2.20
2019-04-07T19:39:16.688Z,2.10
2019-04-07T19:41:51.701Z,2.13
2019-04-07T19:44:41.281Z,2.43
2019-04-07T19:47:31.285Z,2.30
2019-04-07T19:50:15.095Z,2.20
2019-04-07T19:53:20.327Z,2.40
2019-04-07T19:56:10.218Z,2.30
2019-04-07T19:59:10.357Z,1.90
2019-04-07T20:01:59.014Z,2.20
2019-04-07T20:04:37.349Z,2.47
2019-04-07T20:07:22.888Z,2.27
2019-04-07T20:10:00.964Z,2.30
2019-04-07T20:12:46.803Z,2.23
2019-04-07T20:15:45.857Z,2.00
2019-04-07T20:18:27.862Z,2.30
2019-04-07T20:21:18.510Z,2.07
2019-04-07T20:24:05.715Z,2.30
2019-04-07T20:26:55.564Z,2.40
2019-04-07T20:29:46.015Z,2.30
2019-04-07T20:32:42.698Z,2.23
2019-04-07T20:35:42.261Z,2.40
2019-04-07T20:38:27.628Z,2.20
2019-04-07T20:41:15.715Z,2.10
2019-04-07T20:43:55.748Z,2.23
2019-04-07T20:46:49.106Z,2.40
2019-04-07T20:49:27.864Z,2.20
2019-04-07T20:52:34.111Z,2.00
2019-04-07T20:55:30.893Z,2.00
2019-04-07T20:58:21.893Z,2.37
2019-04-07T21:01:02.124Z,1.90
2019-04-07T21:03:49.300Z,2.07
2019-04-07T21:06:37.861Z,2.00
2019-04-07T21:09:15.218Z,2.17
2019-04-07T21:12:02.974Z,2.20
2019-04-07T21:14:50.149Z,2.20
2019-04-07T21:17:37.602Z,2.20
2019-04-07T21:20:14.601Z,2.33
2019-04-07T21:23:04.028Z,2.20
2019-04-07T21:26:03.644Z,2.30
2019-04-07T21:28:50.359Z,2.30
2019-04-07T21:31:28.129Z,2.10
2019-04-07T21:34:18.039Z,1.87
2019-04-07T21:37:10.698Z,2.00
2019-04-07T21:40:02.811Z,2.10
2019-04-07T21:42:52.039Z,2.00
2019-04-07T21:45:45.828Z,1.93
2019-04-07T21:48:30.632Z,2.13
2019-04-07T21:51:18.037Z,2.37
2019-04-07T21:54:02.258Z,2.40
2019-04-07T21:56:43.110Z,2.30
2019-04-07T21:59:31.378Z,2.10
2019-04-07T22:02:12.191Z,2.13
2019-04-07T22:05:09.344Z,2.00
2019-04-07T22:08:03.743Z,2.17
2019-04-07T22:10:28.688Z,2.43
2019-04-07T22:13:00.256Z,2.10
2019-04-07T22:15:26.689Z,2.00
2019-04-07T22:17:54.263Z,2.20
2019-04-07T22:20:21.726Z,2.27
2019-04-07T22:22:49.362Z,2.17
2019-04-07T22:25:25.585Z,2.10
2019-04-07T22:27:55.545Z,1.90
2019-04-07T22:30:22.362Z,1.93
2019-04-07T22:32:51.277Z,2.33
2019-04-07T22:35:18.924Z,2.43
2019-04-07T22:37:49.693Z,2.20
2019-04-07T22:40:17.905Z,2.30
2019-04-07T22:42:47.293Z,2.27
2019-04-07T22:45:14.966Z,2.00
2019-04-07T22:47:43.396Z,2.50
2019-04-07T22:50:10.763Z,2.10
2019-04-07T22:52:38.284Z,2.50
2019-04-07T22:55:08.404Z,2.50
2019-04-07T22:57:35.505Z,2.30
2019-04-07T23:00:04.368Z,2.37
2019-04-07T23:02:31.790Z,2.53
2019-04-07T23:04:59.256Z,2.47
2019-04-07T23:07:27.574Z,2.40
2019-04-07T23:09:55.778Z,2.23
2019-04-07T23:12:23.207Z,2.40
2019-04-07T23:14:50.715Z,2.50
2019-04-07T23:17:18.389Z,2.40
2019-04-07T23:19:46.261Z,2.50
2019-04-07T23:22:13.965Z,2.17
2019-04-07T23:24:41.396Z,2.53
2019-04-07T23:27:08.766Z,2.40
2019-04-07T23:29:36.658Z,2.63
2019-04-07T23:32:04.233Z,2.20
2019-04-07T23:34:31.567Z,2.47
2019-04-07T23:36:59.684Z,2.70
2019-04-07T23:39:27.229Z,2.27
2019-04-07T23:41:54.639Z,2.40
2019-04-07T23:44:21.959Z,2.63
2019-04-07T23:46:49.608Z,2.57
2019-04-07T23:49:16.928Z,2.30
2019-04-07T23:51:44.266Z,2.30
2019-04-07T23:54:12.460Z,2.03
2019-04-07T23:56:41.629Z,2.50
2019-04-07T23:59:09.065Z,2.50
